sensor_id;sensor_type;location;lat;lon;timestamp;temperature;humidity
26599;DHT22;14240;51.064;16.612;2022-10-28T00:02:11;12.30;99.90
26599;DHT22;14240;51.064;16.612;2022-10-28T00:04:37;12.30;99.90
26599;DHT22;14240;51.064;16.612;2022-10-28T00:07:03;12.60;99.90
26599;DHT22;14240;51.064;16.612;2022-10-28T00:09:28;12.50;99.90
26599;DHT22;14240;51.064;16.612;2022-10-28T00:11:54;12.60;99.90
26599;DHT22;14240;51.064;16.612;2022-10-28T00:14:20;12.60;99.90
26599;DHT22;14240;51.064;16.612;2022-10-28T00:16:48;12.70;99.90
26599;DHT22;14240;51.064;16.612;2022-10-28T00:19:14;12.80;99.90
26599;DHT22;14240;51.064;16.612;2022-10-28T00:21:41;12.80;99.90
26599;DHT22;14240;51.064;16.612;2022-10-28T00:24:08;12.90;99.90
26599;DHT22;14240;51.064;16.612;2022-10-28T00:26:37;12.80;99.90
26599;DHT22;14240;51.064;16.612;2022-10-28T00:29:06;12.90;99.90
26599;DHT22;14240;51.064;16.612;2022-10-28T00:31:33;12.90;99.90
26599;DHT22;14240;51.064;16.612;2022-10-28T00:34:01;12.90;99.90
26599;DHT22;14240;51.064;16.612;2022-10-28T00:36:28;12.90;99.90
26599;DHT22;14240;51.064;16.612;2022-10-28T00:38:55;12.80;99.90
26599;DHT22;14240;51.064;16.612;2022-10-28T00:41:32;12.80;99.90
26599;DHT22;14240;51.064;16.612;2022-10-28T00:47:02;12.80;99.90
26599;DHT22;14240;51.064;16.612;2022-10-28T00:49:31;12.80;99.90
26599;DHT22;14240;51.064;16.612;2022-10-28T00:52:11;12.80;99.90
26599;DHT22;14240;51.064;16.612;2022-10-28T00:54:38;12.80;99.90
26599;DHT22;14240;51.064;16.612;2022-10-28T00:57:10;12.80;99.90
26599;DHT22;14240;51.064;16.612;2022-10-28T00:59:39;12.80;99.90
26599;DHT22;14240;51.064;16.612;2022-10-28T01:02:07;12.90;99.90
26599;DHT22;14240;51.064;16.612;2022-10-28T01:04:33;12.90;99.90
26599;DHT22;14240;51.064;16.612;2022-10-28T01:07:00;13.00;99.90
26599;DHT22;14240;51.064;16.612;2022-10-28T01:09:26;13.00;99.90
26599;DHT22;14240;51.064;16.612;2022-10-28T01:17:48;13.20;99.90
26599;DHT22;14240;51.064;16.612;2022-10-28T01:31:48;13.20;99.90
26599;DHT22;14240;51.064;16.612;2022-10-28T01:39:48;13.10;99.90
26599;DHT22;14240;51.064;16.612;2022-10-28T01:42:28;13.10;99.90
26599;DHT22;14240;51.064;16.612;2022-10-28T01:45:03;13.10;99.90
26599;DHT22;14240;51.064;16.612;2022-10-28T01:47:38;13.20;99.90
26599;DHT22;14240;51.064;16.612;2022-10-28T01:52:47;13.30;99.90
26599;DHT22;14240;51.064;16.612;2022-10-28T01:55:21;13.40;99.90
26599;DHT22;14240;51.064;16.612;2022-10-28T01:57:50;13.40;99.90
26599;DHT22;14240;51.064;16.612;2022-10-28T02:00:16;13.50;99.90
26599;DHT22;14240;51.064;16.612;2022-10-28T02:02:42;13.50;99.90
26599;DHT22;14240;51.064;16.612;2022-10-28T02:05:47;13.60;99.90
26599;DHT22;14240;51.064;16.612;2022-10-28T02:13:17;13.70;99.90
26599;DHT22;14240;51.064;16.612;2022-10-28T02:21:35;13.90;99.90
26599;DHT22;14240;51.064;16.612;2022-10-28T02:26:42;13.90;99.90
26599;DHT22;14240;51.064;16.612;2022-10-28T02:29:19;14.00;99.90
26599;DHT22;14240;51.064;16.612;2022-10-28T02:31:57;14.00;99.90
26599;DHT22;14240;51.064;16.612;2022-10-28T02:34:31;14.00;99.90
26599;DHT22;14240;51.064;16.612;2022-10-28T02:37:01;14.00;99.90
26599;DHT22;14240;51.064;16.612;2022-10-28T02:39:32;14.00;99.90
26599;DHT22;14240;51.064;16.612;2022-10-28T02:42:07;14.00;99.90
26599;DHT22;14240;51.064;16.612;2022-10-28T02:44:41;14.10;99.90
26599;DHT22;14240;51.064;16.612;2022-10-28T02:47:12;14.10;99.90
26599;DHT22;14240;51.064;16.612;2022-10-28T02:49:43;14.10;99.90
26599;DHT22;14240;51.064;16.612;2022-10-28T02:52:10;14.10;99.90
26599;DHT22;14240;51.064;16.612;2022-10-28T02:54:46;14.10;99.90
26599;DHT22;14240;51.064;16.612;2022-10-28T02:57:23;14.10;99.90
26599;DHT22;14240;51.064;16.612;2022-10-28T03:00:07;14.20;99.90
26599;DHT22;14240;51.064;16.612;2022-10-28T03:02:34;14.20;99.90
26599;DHT22;14240;51.064;16.612;2022-10-28T03:04:59;14.20;99.90
26599;DHT22;14240;51.064;16.612;2022-10-28T03:07:25;14.20;99.90
26599;DHT22;14240;51.064;16.612;2022-10-28T03:09:50;14.20;99.90
26599;DHT22;14240;51.064;16.612;2022-10-28T03:12:16;14.30;99.90
26599;DHT22;14240;51.064;16.612;2022-10-28T03:14:42;14.20;99.90
26599;DHT22;14240;51.064;16.612;2022-10-28T03:17:08;14.30;99.90
26599;DHT22;14240;51.064;16.612;2022-10-28T03:19:34;14.20;99.90
26599;DHT22;14240;51.064;16.612;2022-10-28T03:21:59;14.30;99.90
26599;DHT22;14240;51.064;16.612;2022-10-28T03:24:25;14.30;99.90
26599;DHT22;14240;51.064;16.612;2022-10-28T03:26:50;14.30;99.90
26599;DHT22;14240;51.064;16.612;2022-10-28T03:29:16;14.30;99.90
26599;DHT22;14240;51.064;16.612;2022-10-28T03:31:42;14.30;99.90
26599;DHT22;14240;51.064;16.612;2022-10-28T03:34:07;14.30;99.90
26599;DHT22;14240;51.064;16.612;2022-10-28T03:36:33;14.30;99.90
26599;DHT22;14240;51.064;16.612;2022-10-28T03:38:58;14.30;99.90
26599;DHT22;14240;51.064;16.612;2022-10-28T03:41:24;14.30;99.90
26599;DHT22;14240;51.064;16.612;2022-10-28T03:43:50;14.40;99.90
26599;DHT22;14240;51.064;16.612;2022-10-28T03:46:15;14.40;99.90
26599;DHT22;14240;51.064;16.612;2022-10-28T03:48:41;14.40;99.90
26599;DHT22;14240;51.064;16.612;2022-10-28T03:51:06;14.40;99.90
26599;DHT22;14240;51.064;16.612;2022-10-28T03:53:32;14.40;99.90
26599;DHT22;14240;51.064;16.612;2022-10-28T03:55:59;14.50;99.90
26599;DHT22;14240;51.064;16.612;2022-10-28T03:58:25;14.40;99.90
26599;DHT22;14240;51.064;16.612;2022-10-28T04:00:52;14.40;99.90
26599;DHT22;14240;51.064;16.612;2022-10-28T04:03:19;14.40;99.90
26599;DHT22;14240;51.064;16.612;2022-10-28T04:05:45;14.40;99.90
26599;DHT22;14240;51.064;16.612;2022-10-28T04:08:14;14.40;99.90
26599;DHT22;14240;51.064;16.612;2022-10-28T04:10:40;14.40;99.90
26599;DHT22;14240;51.064;16.612;2022-10-28T04:13:07;14.40;99.90
26599;DHT22;14240;51.064;16.612;2022-10-28T04:15:32;14.40;99.90
26599;DHT22;14240;51.064;16.612;2022-10-28T04:17:58;14.40;99.90
26599;DHT22;14240;51.064;16.612;2022-10-28T04:20:25;14.40;99.90
26599;DHT22;14240;51.064;16.612;2022-10-28T04:22:50;14.40;99.90
26599;DHT22;14240;51.064;16.612;2022-10-28T04:25:16;14.40;99.90
26599;DHT22;14240;51.064;16.612;2022-10-28T04:27:45;14.40;99.90
26599;DHT22;14240;51.064;16.612;2022-10-28T04:30:11;14.40;99.90
26599;DHT22;14240;51.064;16.612;2022-10-28T04:32:37;14.40;99.90
26599;DHT22;14240;51.064;16.612;2022-10-28T04:35:03;14.40;99.90
26599;DHT22;14240;51.064;16.612;2022-10-28T04:37:29;14.40;99.90
26599;DHT22;14240;51.064;16.612;2022-10-28T04:39:55;14.50;99.90
26599;DHT22;14240;51.064;16.612;2022-10-28T04:42:22;14.40;99.90
26599;DHT22;14240;51.064;16.612;2022-10-28T04:44:48;14.50;99.90
26599;DHT22;14240;51.064;16.612;2022-10-28T04:47:13;14.40;99.90
26599;DHT22;14240;51.064;16.612;2022-10-28T04:49:39;14.40;99.90
26599;DHT22;14240;51.064;16.612;2022-10-28T04:52:05;14.40;99.90
26599;DHT22;14240;51.064;16.612;2022-10-28T04:54:30;14.40;99.90
26599;DHT22;14240;51.064;16.612;2022-10-28T04:56:56;14.40;99.90
26599;DHT22;14240;51.064;16.612;2022-10-28T04:59:22;14.40;99.90
26599;DHT22;14240;51.064;16.612;2022-10-28T05:01:47;14.40;99.90
26599;DHT22;14240;51.064;16.612;2022-10-28T05:04:13;14.40;99.90
26599;DHT22;14240;51.064;16.612;2022-10-28T05:06:38;14.40;99.90
26599;DHT22;14240;51.064;16.612;2022-10-28T05:09:04;14.40;99.90
26599;DHT22;14240;51.064;16.612;2022-10-28T05:11:30;14.40;99.90
26599;DHT22;14240;51.064;16.612;2022-10-28T05:13:56;14.40;99.90
26599;DHT22;14240;51.064;16.612;2022-10-28T05:16:21;14.40;99.90
26599;DHT22;14240;51.064;16.612;2022-10-28T05:18:47;14.40;99.90
26599;DHT22;14240;51.064;16.612;2022-10-28T05:21:13;14.40;99.90
26599;DHT22;14240;51.064;16.612;2022-10-28T05:23:38;14.40;99.90
26599;DHT22;14240;51.064;16.612;2022-10-28T05:26:04;14.30;99.90
26599;DHT22;14240;51.064;16.612;2022-10-28T05:28:30;14.30;99.90
26599;DHT22;14240;51.064;16.612;2022-10-28T05:30:56;14.30;99.90
26599;DHT22;14240;51.064;16.612;2022-10-28T05:33:21;14.30;99.90
26599;DHT22;14240;51.064;16.612;2022-10-28T05:35:47;14.30;99.90
26599;DHT22;14240;51.064;16.612;2022-10-28T05:38:13;14.30;99.90
26599;DHT22;14240;51.064;16.612;2022-10-28T05:40:38;14.20;99.90
26599;DHT22;14240;51.064;16.612;2022-10-28T05:43:04;14.20;99.90
26599;DHT22;14240;51.064;16.612;2022-10-28T05:45:30;14.20;99.90
26599;DHT22;14240;51.064;16.612;2022-10-28T05:47:56;14.20;99.90
26599;DHT22;14240;51.064;16.612;2022-10-28T05:50:22;14.20;99.90
26599;DHT22;14240;51.064;16.612;2022-10-28T05:52:48;14.20;99.90
26599;DHT22;14240;51.064;16.612;2022-10-28T05:55:14;14.20;99.90
26599;DHT22;14240;51.064;16.612;2022-10-28T05:57:40;14.30;99.90
26599;DHT22;14240;51.064;16.612;2022-10-28T06:00:06;14.30;99.90
26599;DHT22;14240;51.064;16.612;2022-10-28T06:02:32;14.30;99.90
26599;DHT22;14240;51.064;16.612;2022-10-28T06:04:58;14.30;99.90
26599;DHT22;14240;51.064;16.612;2022-10-28T06:07:23;15.00;99.90
26599;DHT22;14240;51.064;16.612;2022-10-28T06:09:49;14.40;99.90
26599;DHT22;14240;51.064;16.612;2022-10-28T06:12:16;14.30;99.90
26599;DHT22;14240;51.064;16.612;2022-10-28T06:14:41;14.40;99.90
26599;DHT22;14240;51.064;16.612;2022-10-28T06:17:07;14.40;99.90
26599;DHT22;14240;51.064;16.612;2022-10-28T06:19:32;14.50;99.90
26599;DHT22;14240;51.064;16.612;2022-10-28T06:21:58;14.50;99.90
26599;DHT22;14240;51.064;16.612;2022-10-28T06:24:24;14.60;99.90
26599;DHT22;14240;51.064;16.612;2022-10-28T06:26:49;14.60;99.90
26599;DHT22;14240;51.064;16.612;2022-10-28T06:29:15;14.80;99.90
26599;DHT22;14240;51.064;16.612;2022-10-28T06:31:41;14.90;99.90
26599;DHT22;14240;51.064;16.612;2022-10-28T06:34:10;15.00;99.90
26599;DHT22;14240;51.064;16.612;2022-10-28T06:36:36;15.10;99.90
26599;DHT22;14240;51.064;16.612;2022-10-28T06:39:02;15.20;99.90
26599;DHT22;14240;51.064;16.612;2022-10-28T06:41:28;15.40;99.90
26599;DHT22;14240;51.064;16.612;2022-10-28T06:43:53;15.60;99.90
26599;DHT22;14240;51.064;16.612;2022-10-28T06:46:19;15.80;99.90
26599;DHT22;14240;51.064;16.612;2022-10-28T06:48:45;16.00;99.90
26599;DHT22;14240;51.064;16.612;2022-10-28T06:51:10;16.10;99.90
26599;DHT22;14240;51.064;16.612;2022-10-28T06:53:36;16.20;99.90
26599;DHT22;14240;51.064;16.612;2022-10-28T06:56:02;16.30;99.90
26599;DHT22;14240;51.064;16.612;2022-10-28T06:58:27;16.40;99.90
26599;DHT22;14240;51.064;16.612;2022-10-28T07:00:53;16.50;99.90
26599;DHT22;14240;51.064;16.612;2022-10-28T07:03:19;16.60;99.90
26599;DHT22;14240;51.064;16.612;2022-10-28T07:05:45;16.70;99.90
26599;DHT22;14240;51.064;16.612;2022-10-28T07:08:12;16.90;99.90
26599;DHT22;14240;51.064;16.612;2022-10-28T07:10:38;17.00;99.90
26599;DHT22;14240;51.064;16.612;2022-10-28T07:13:04;17.10;99.90
26599;DHT22;14240;51.064;16.612;2022-10-28T07:15:29;17.20;99.90
26599;DHT22;14240;51.064;16.612;2022-10-28T07:17:57;17.20;99.90
26599;DHT22;14240;51.064;16.612;2022-10-28T07:20:23;17.30;99.90
26599;DHT22;14240;51.064;16.612;2022-10-28T07:23:00;17.30;99.90
26599;DHT22;14240;51.064;16.612;2022-10-28T07:25:28;17.30;99.90
26599;DHT22;14240;51.064;16.612;2022-10-28T07:27:55;17.40;99.90
26599;DHT22;14240;51.064;16.612;2022-10-28T07:30:21;17.40;99.90
26599;DHT22;14240;51.064;16.612;2022-10-28T07:32:47;17.50;99.90
26599;DHT22;14240;51.064;16.612;2022-10-28T07:35:12;17.50;99.90
26599;DHT22;14240;51.064;16.612;2022-10-28T07:37:38;17.60;99.90
26599;DHT22;14240;51.064;16.612;2022-10-28T07:40:05;17.70;99.90
26599;DHT22;14240;51.064;16.612;2022-10-28T07:42:32;17.70;99.90
26599;DHT22;14240;51.064;16.612;2022-10-28T07:44:58;17.70;99.90
26599;DHT22;14240;51.064;16.612;2022-10-28T07:47:23;17.80;99.90
26599;DHT22;14240;51.064;16.612;2022-10-28T07:49:50;17.90;99.90
26599;DHT22;14240;51.064;16.612;2022-10-28T07:52:16;18.00;99.90
26599;DHT22;14240;51.064;16.612;2022-10-28T07:54:42;18.10;99.90
26599;DHT22;14240;51.064;16.612;2022-10-28T07:57:07;18.20;99.90
26599;DHT22;14240;51.064;16.612;2022-10-28T07:59:33;18.30;99.90
26599;DHT22;14240;51.064;16.612;2022-10-28T08:01:58;18.40;99.90
26599;DHT22;14240;51.064;16.612;2022-10-28T08:04:24;18.60;99.90
26599;DHT22;14240;51.064;16.612;2022-10-28T08:06:49;18.80;99.90
26599;DHT22;14240;51.064;16.612;2022-10-28T08:09:15;18.90;99.90
26599;DHT22;14240;51.064;16.612;2022-10-28T08:11:41;19.00;99.90
26599;DHT22;14240;51.064;16.612;2022-10-28T08:14:06;19.10;99.90
26599;DHT22;14240;51.064;16.612;2022-10-28T08:16:32;19.20;99.90
26599;DHT22;14240;51.064;16.612;2022-10-28T08:18:57;19.20;99.90
26599;DHT22;14240;51.064;16.612;2022-10-28T08:21:23;19.30;99.90
26599;DHT22;14240;51.064;16.612;2022-10-28T08:23:49;19.40;99.90
26599;DHT22;14240;51.064;16.612;2022-10-28T08:26:15;19.50;99.90
26599;DHT22;14240;51.064;16.612;2022-10-28T08:28:41;19.70;99.90
26599;DHT22;14240;51.064;16.612;2022-10-28T08:31:07;20.30;99.90
26599;DHT22;14240;51.064;16.612;2022-10-28T08:33:35;21.10;99.90
26599;DHT22;14240;51.064;16.612;2022-10-28T08:36:01;21.90;99.90
26599;DHT22;14240;51.064;16.612;2022-10-28T08:38:26;22.70;99.90
26599;DHT22;14240;51.064;16.612;2022-10-28T08:41:16;23.60;99.90
26599;DHT22;14240;51.064;16.612;2022-10-28T08:50:08;26.60;99.90
26599;DHT22;14240;51.064;16.612;2022-10-28T08:52:54;27.30;99.80
26599;DHT22;14240;51.064;16.612;2022-10-28T08:55:42;28.10;98.30
26599;DHT22;14240;51.064;16.612;2022-10-28T08:58:17;28.70;97.10
26599;DHT22;14240;51.064;16.612;2022-10-28T09:00:46;29.40;95.40
26599;DHT22;14240;51.064;16.612;2022-10-28T09:03:29;29.80;94.00
26599;DHT22;14240;51.064;16.612;2022-10-28T09:06:07;30.00;92.40
26599;DHT22;14240;51.064;16.612;2022-10-28T09:08:42;29.80;91.50
26599;DHT22;14240;51.064;16.612;2022-10-28T09:13:57;29.50;90.60
26599;DHT22;14240;51.064;16.612;2022-10-28T09:16:45;29.40;90.50
26599;DHT22;14240;51.064;16.612;2022-10-28T09:19:27;29.80;90.10
26599;DHT22;14240;51.064;16.612;2022-10-28T09:22:19;30.30;88.20
26599;DHT22;14240;51.064;16.612;2022-10-28T09:24:53;30.60;86.40
26599;DHT22;14240;51.064;16.612;2022-10-28T09:27:35;31.00;84.40
26599;DHT22;14240;51.064;16.612;2022-10-28T09:33:12;31.70;80.90
26599;DHT22;14240;51.064;16.612;2022-10-28T09:35:42;32.10;80.00
26599;DHT22;14240;51.064;16.612;2022-10-28T09:41:44;32.60;75.80
26599;DHT22;14240;51.064;16.612;2022-10-28T09:44:12;32.80;74.60
26599;DHT22;14240;51.064;16.612;2022-10-28T09:46:39;32.70;73.80
26599;DHT22;14240;51.064;16.612;2022-10-28T09:52:12;31.90;72.70
26599;DHT22;14240;51.064;16.612;2022-10-28T09:54:48;31.20;76.50
26599;DHT22;14240;51.064;16.612;2022-10-28T09:57:14;30.80;75.20
26599;DHT22;14240;51.064;16.612;2022-10-28T09:59:40;30.40;74.60
26599;DHT22;14240;51.064;16.612;2022-10-28T10:02:23;29.90;74.60
26599;DHT22;14240;51.064;16.612;2022-10-28T10:04:50;29.50;74.40
26599;DHT22;14240;51.064;16.612;2022-10-28T10:07:25;29.20;74.40
26599;DHT22;14240;51.064;16.612;2022-10-28T10:09:53;28.90;75.40
26599;DHT22;14240;51.064;16.612;2022-10-28T10:12:19;28.70;76.00
26599;DHT22;14240;51.064;16.612;2022-10-28T10:14:48;28.50;76.80
26599;DHT22;14240;51.064;16.612;2022-10-28T10:17:18;28.40;77.00
26599;DHT22;14240;51.064;16.612;2022-10-28T10:22:35;28.00;76.80
26599;DHT22;14240;51.064;16.612;2022-10-28T10:25:02;27.80;76.90
26599;DHT22;14240;51.064;16.612;2022-10-28T10:27:29;27.60;77.70
26599;DHT22;14240;51.064;16.612;2022-10-28T10:29:55;27.50;77.90
26599;DHT22;14240;51.064;16.612;2022-10-28T10:32:32;27.30;78.10
26599;DHT22;14240;51.064;16.612;2022-10-28T10:35:27;27.20;78.60
26599;DHT22;14240;51.064;16.612;2022-10-28T10:37:56;27.00;78.80
26599;DHT22;14240;51.064;16.612;2022-10-28T10:40:27;27.00;79.00
26599;DHT22;14240;51.064;16.612;2022-10-28T10:43:34;26.90;79.90
26599;DHT22;14240;51.064;16.612;2022-10-28T10:46:14;26.80;80.90
26599;DHT22;14240;51.064;16.612;2022-10-28T10:48:41;26.80;80.30
26599;DHT22;14240;51.064;16.612;2022-10-28T10:51:24;26.70;79.90
26599;DHT22;14240;51.064;16.612;2022-10-28T10:53:53;26.60;81.20
26599;DHT22;14240;51.064;16.612;2022-10-28T10:56:28;26.50;80.50
26599;DHT22;14240;51.064;16.612;2022-10-28T10:58:57;26.50;80.60
26599;DHT22;14240;51.064;16.612;2022-10-28T11:01:28;26.40;80.80
26599;DHT22;14240;51.064;16.612;2022-10-28T11:03:59;26.30;80.80
26599;DHT22;14240;51.064;16.612;2022-10-28T11:06:27;26.20;81.20
26599;DHT22;14240;51.064;16.612;2022-10-28T11:08:57;26.20;81.20
26599;DHT22;14240;51.064;16.612;2022-10-28T11:11:33;26.10;82.30
26599;DHT22;14240;51.064;16.612;2022-10-28T11:14:25;26.10;82.80
26599;DHT22;14240;51.064;16.612;2022-10-28T11:16:55;26.00;83.40
26599;DHT22;14240;51.064;16.612;2022-10-28T11:39:58;25.80;84.60
26599;DHT22;14240;51.064;16.612;2022-10-28T11:42:15;25.70;84.00
26599;DHT22;14240;51.064;16.612;2022-10-28T11:44:54;25.70;83.60
26599;DHT22;14240;51.064;16.612;2022-10-28T11:58:10;25.40;83.70
26599;DHT22;14240;51.064;16.612;2022-10-28T12:09:02;25.30;83.60
26599;DHT22;14240;51.064;16.612;2022-10-28T12:17:12;25.10;84.50
26599;DHT22;14240;51.064;16.612;2022-10-28T12:19:55;25.00;85.20
26599;DHT22;14240;51.064;16.612;2022-10-28T12:22:51;25.00;85.40
26599;DHT22;14240;51.064;16.612;2022-10-28T12:25:24;25.00;85.90
26599;DHT22;14240;51.064;16.612;2022-10-28T12:27:54;24.90;86.20
26599;DHT22;14240;51.064;16.612;2022-10-28T12:30:25;25.00;86.20
26599;DHT22;14240;51.064;16.612;2022-10-28T12:32:56;24.90;86.10
26599;DHT22;14240;51.064;16.612;2022-10-28T12:35:39;25.00;85.50
26599;DHT22;14240;51.064;16.612;2022-10-28T12:38:19;24.90;84.40
26599;DHT22;14240;51.064;16.612;2022-10-28T12:40:53;24.90;84.00
26599;DHT22;14240;51.064;16.612;2022-10-28T12:49:10;24.80;82.70
26599;DHT22;14240;51.064;16.612;2022-10-28T12:51:37;24.80;82.90
26599;DHT22;14240;51.064;16.612;2022-10-28T12:54:26;24.80;82.80
26599;DHT22;14240;51.064;16.612;2022-10-28T12:57:08;24.80;82.50
26599;DHT22;14240;51.064;16.612;2022-10-28T12:59:38;24.80;82.50
26599;DHT22;14240;51.064;16.612;2022-10-28T13:02:19;24.70;82.50
26599;DHT22;14240;51.064;16.612;2022-10-28T13:04:46;24.70;82.40
26599;DHT22;14240;51.064;16.612;2022-10-28T13:07:53;24.60;82.40
26599;DHT22;14240;51.064;16.612;2022-10-28T13:10:56;24.60;82.80
26599;DHT22;14240;51.064;16.612;2022-10-28T13:16:17;24.50;83.60
26599;DHT22;14240;51.064;16.612;2022-10-28T13:21:54;24.40;85.60
26599;DHT22;14240;51.064;16.612;2022-10-28T13:27:21;24.30;86.70
26599;DHT22;14240;51.064;16.612;2022-10-28T13:29:57;24.20;86.50
26599;DHT22;14240;51.064;16.612;2022-10-28T13:32:35;24.20;86.40
26599;DHT22;14240;51.064;16.612;2022-10-28T13:35:12;24.20;86.60
26599;DHT22;14240;51.064;16.612;2022-10-28T13:37:39;24.10;87.00
26599;DHT22;14240;51.064;16.612;2022-10-28T13:40:10;24.10;87.20
26599;DHT22;14240;51.064;16.612;2022-10-28T13:42:46;24.00;87.30
26599;DHT22;14240;51.064;16.612;2022-10-28T13:45:48;24.00;87.50
26599;DHT22;14240;51.064;16.612;2022-10-28T13:58:58;23.80;87.60
26599;DHT22;14240;51.064;16.612;2022-10-28T14:01:51;23.80;88.10
26599;DHT22;14240;51.064;16.612;2022-10-28T14:04:32;23.70;88.40
26599;DHT22;14240;51.064;16.612;2022-10-28T14:09:35;23.60;88.60
26599;DHT22;14240;51.064;16.612;2022-10-28T14:12:28;23.50;88.40
26599;DHT22;14240;51.064;16.612;2022-10-28T14:14:58;23.50;88.30
26599;DHT22;14240;51.064;16.612;2022-10-28T14:17:38;23.40;88.50
26599;DHT22;14240;51.064;16.612;2022-10-28T14:22:43;23.30;88.80
26599;DHT22;14240;51.064;16.612;2022-10-28T14:33:35;22.90;89.70
26599;DHT22;14240;51.064;16.612;2022-10-28T14:49:38;22.50;90.00
26599;DHT22;14240;51.064;16.612;2022-10-28T14:52:16;22.40;89.90
26599;DHT22;14240;51.064;16.612;2022-10-28T14:54:47;22.30;89.90
26599;DHT22;14240;51.064;16.612;2022-10-28T14:57:15;22.20;89.70
26599;DHT22;14240;51.064;16.612;2022-10-28T14:59:48;22.10;89.90
26599;DHT22;14240;51.064;16.612;2022-10-28T15:02:20;22.00;89.80
26599;DHT22;14240;51.064;16.612;2022-10-28T15:05:03;21.90;89.80
26599;DHT22;14240;51.064;16.612;2022-10-28T15:07:38;21.80;89.90
26599;DHT22;14240;51.064;16.612;2022-10-28T15:10:20;21.70;90.00
26599;DHT22;14240;51.064;16.612;2022-10-28T15:12:47;21.60;89.90
26599;DHT22;14240;51.064;16.612;2022-10-28T15:15:19;21.50;90.00
26599;DHT22;14240;51.064;16.612;2022-10-28T15:17:45;21.50;90.10
26599;DHT22;14240;51.064;16.612;2022-10-28T15:20:28;21.40;90.20
26599;DHT22;14240;51.064;16.612;2022-10-28T15:23:20;21.30;90.30
26599;DHT22;14240;51.064;16.612;2022-10-28T15:26:04;21.20;90.30
26599;DHT22;14240;51.064;16.612;2022-10-28T15:28:30;21.10;90.40
26599;DHT22;14240;51.064;16.612;2022-10-28T15:30:56;21.10;90.50
26599;DHT22;14240;51.064;16.612;2022-10-28T15:33:35;21.00;90.60
26599;DHT22;14240;51.064;16.612;2022-10-28T15:38:50;20.80;90.80
26599;DHT22;14240;51.064;16.612;2022-10-28T15:41:42;20.70;90.90
26599;DHT22;14240;51.064;16.612;2022-10-28T15:44:36;20.60;91.10
26599;DHT22;14240;51.064;16.612;2022-10-28T15:47:38;20.50;91.20
26599;DHT22;14240;51.064;16.612;2022-10-28T15:50:23;20.40;91.30
26599;DHT22;14240;51.064;16.612;2022-10-28T15:52:54;20.30;91.40
26599;DHT22;14240;51.064;16.612;2022-10-28T15:55:40;20.20;91.50
26599;DHT22;14240;51.064;16.612;2022-10-28T16:00:49;20.00;91.70
26599;DHT22;14240;51.064;16.612;2022-10-28T16:03:45;20.00;91.70
26599;DHT22;14240;51.064;16.612;2022-10-28T16:06:31;19.90;91.80
26599;DHT22;14240;51.064;16.612;2022-10-28T16:09:16;19.80;91.80
26599;DHT22;14240;51.064;16.612;2022-10-28T16:11:47;19.70;91.80
26599;DHT22;14240;51.064;16.612;2022-10-28T16:14:35;19.70;91.80
26599;DHT22;14240;51.064;16.612;2022-10-28T16:19:41;19.50;91.80
26599;DHT22;14240;51.064;16.612;2022-10-28T16:22:13;19.50;91.90
26599;DHT22;14240;51.064;16.612;2022-10-28T16:24:40;19.40;92.00
26599;DHT22;14240;51.064;16.612;2022-10-28T16:27:32;19.30;92.00
26599;DHT22;14240;51.064;16.612;2022-10-28T16:29:57;19.30;92.50
26599;DHT22;14240;51.064;16.612;2022-10-28T16:32:58;19.20;92.30
26599;DHT22;14240;51.064;16.612;2022-10-28T16:35:24;19.10;92.30
26599;DHT22;14240;51.064;16.612;2022-10-28T16:37:50;19.10;92.50
26599;DHT22;14240;51.064;16.612;2022-10-28T16:40:17;19.00;92.60
26599;DHT22;14240;51.064;16.612;2022-10-28T16:42:43;18.90;92.70
26599;DHT22;14240;51.064;16.612;2022-10-28T16:45:13;18.90;92.70
26599;DHT22;14240;51.064;16.612;2022-10-28T16:47:39;18.80;92.70
26599;DHT22;14240;51.064;16.612;2022-10-28T16:50:05;18.80;92.70
26599;DHT22;14240;51.064;16.612;2022-10-28T16:52:31;18.80;92.80
26599;DHT22;14240;51.064;16.612;2022-10-28T16:54:58;18.70;92.90
26599;DHT22;14240;51.064;16.612;2022-10-28T16:57:23;18.70;92.90
26599;DHT22;14240;51.064;16.612;2022-10-28T16:59:49;18.60;92.90
26599;DHT22;14240;51.064;16.612;2022-10-28T17:02:22;18.50;93.00
26599;DHT22;14240;51.064;16.612;2022-10-28T17:04:49;18.50;93.00
26599;DHT22;14240;51.064;16.612;2022-10-28T17:07:14;18.50;93.10
26599;DHT22;14240;51.064;16.612;2022-10-28T17:09:42;18.50;93.10
26599;DHT22;14240;51.064;16.612;2022-10-28T17:12:19;18.40;93.10
26599;DHT22;14240;51.064;16.612;2022-10-28T17:14:45;18.40;93.20
26599;DHT22;14240;51.064;16.612;2022-10-28T17:17:11;18.30;93.20
26599;DHT22;14240;51.064;16.612;2022-10-28T17:19:37;18.30;93.20
26599;DHT22;14240;51.064;16.612;2022-10-28T17:22:04;18.20;93.20
26599;DHT22;14240;51.064;16.612;2022-10-28T17:24:29;18.20;93.20
26599;DHT22;14240;51.064;16.612;2022-10-28T17:26:55;18.20;93.30
26599;DHT22;14240;51.064;16.612;2022-10-28T17:29:21;18.20;93.30
26599;DHT22;14240;51.064;16.612;2022-10-28T17:31:46;18.20;93.40
26599;DHT22;14240;51.064;16.612;2022-10-28T17:34:12;18.10;93.70
26599;DHT22;14240;51.064;16.612;2022-10-28T17:36:37;18.10;93.50
26599;DHT22;14240;51.064;16.612;2022-10-28T17:39:04;18.10;93.50
26599;DHT22;14240;51.064;16.612;2022-10-28T17:41:29;18.10;93.60
26599;DHT22;14240;51.064;16.612;2022-10-28T17:43:55;18.00;93.60
26599;DHT22;14240;51.064;16.612;2022-10-28T17:46:21;18.00;93.70
26599;DHT22;14240;51.064;16.612;2022-10-28T17:48:47;18.00;93.80
26599;DHT22;14240;51.064;16.612;2022-10-28T17:51:14;18.00;93.80
26599;DHT22;14240;51.064;16.612;2022-10-28T17:53:39;18.00;93.80
26599;DHT22;14240;51.064;16.612;2022-10-28T17:56:06;18.10;93.90
26599;DHT22;14240;51.064;16.612;2022-10-28T17:58:32;18.00;93.90
26599;DHT22;14240;51.064;16.612;2022-10-28T18:01:00;18.00;93.90
26599;DHT22;14240;51.064;16.612;2022-10-28T18:03:26;18.00;94.00
26599;DHT22;14240;51.064;16.612;2022-10-28T18:05:52;18.00;94.00
26599;DHT22;14240;51.064;16.612;2022-10-28T18:08:17;18.00;94.10
26599;DHT22;14240;51.064;16.612;2022-10-28T18:10:52;18.00;94.20
26599;DHT22;14240;51.064;16.612;2022-10-28T18:13:28;18.00;94.30
26599;DHT22;14240;51.064;16.612;2022-10-28T18:15:55;18.00;94.40
26599;DHT22;14240;51.064;16.612;2022-10-28T18:18:24;18.00;94.40
26599;DHT22;14240;51.064;16.612;2022-10-28T18:20:53;18.00;94.40
26599;DHT22;14240;51.064;16.612;2022-10-28T18:23:19;18.00;94.40
26599;DHT22;14240;51.064;16.612;2022-10-28T18:25:45;18.10;94.50